Time;durP1;ratioP1;P1;durP2;ratioP2;P2;SDS_P1;SDS_P2;PMS_P1;PMS_P2;Temp;Humidity;BMP_temperature;BMP_pressure;BME280_temperature;BME280_humidity;BME280_pressure;Samples;Min_cycle;Max_cycle;Signal;HPM_P1;HPM_P2
2023/10/09 00:01:17;;;;;;;10.43;4.28;;;;;;;24.52;47.08;101839.97;4975734;28;20035;-61
2023/10/09 00:03:44;;;;;;;12.40;3.97;;;;;;;24.49;46.77;101841.22;4959586;28;20134;-61
2023/10/09 00:06:13;;;;;;;6.90;3.80;;;;;;;24.44;46.26;101832.72;4977028;28;20395;-61
2023/10/09 00:08:39;;;;;;;9.38;4.07;;;;;;;24.44;46.28;101832.72;4991734;28;20110;-62
2023/10/09 00:11:19;;;;;;;13.75;3.88;;;;;;;24.43;46.82;101831.03;4993243;28;20043;-61
2023/10/09 00:13:49;;;;;;;11.90;3.72;;;;;;;24.38;46.79;101825.28;4972092;28;20096;-62
2023/10/09 00:16:36;;;;;;;8.13;3.78;;;;;;;24.35;46.99;101828.41;4960895;28;20177;-61
2023/10/09 00:21:41;;;;;;;12.00;4.65;;;;;;;24.30;46.46;101825.41;4977089;28;20066;-61
2023/10/09 00:24:13;;;;;;;10.27;3.90;;;;;;;24.27;46.80;101823.91;4975712;28;20093;-61
2023/10/09 00:26:48;;;;;;;7.47;3.70;;;;;;;24.25;47.30;101826.03;4991253;28;20541;-62
2023/10/09 00:29:21;;;;;;;8.98;3.88;;;;;;;24.22;46.29;101822.81;4978149;28;20457;-63
2023/10/09 00:32:37;;;;;;;6.18;3.25;;;;;;;24.18;46.78;101822.34;4992195;28;20569;-63
2023/10/09 00:34:42;;;;;;;12.45;4.80;;;;;;;24.16;46.62;101818.97;4971918;28;20031;-65
2023/10/09 00:37:45;;;;;;;10.73;3.75;;;;;;;24.12;47.16;101816.81;4976207;28;20031;-63
2023/10/09 00:40:12;;;;;;;6.20;3.35;;;;;;;24.08;46.45;101809.97;4987911;28;20046;-63
2023/10/09 00:42:38;;;;;;;7.95;3.50;;;;;;;24.06;46.59;101806.59;4975152;28;20054;-63
2023/10/09 00:45:04;;;;;;;10.25;3.67;;;;;;;24.02;46.61;101810.75;4990957;28;20047;-65
2023/10/09 00:47:34;;;;;;;8.70;3.92;;;;;;;23.99;47.17;101811.97;4991133;28;20080;-63
2023/10/09 00:50:23;;;;;;;5.55;3.00;;;;;;;23.96;46.79;101806.03;4976165;28;20027;-62
2023/10/09 00:53:02;;;;;;;10.70;3.45;;;;;;;23.92;46.75;101800.13;4988992;28;20031;-63
2023/10/09 00:55:38;;;;;;;9.23;4.03;;;;;;;23.89;46.75;101799.66;4974760;28;20062;-62
2023/10/09 00:58:09;;;;;;;11.73;4.10;;;;;;;23.89;47.40;101796.91;4974699;28;20034;-62
2023/10/09 01:03:33;;;;;;;6.32;3.72;;;;;;;23.85;47.04;101793.72;4989923;28;20038;-62
2023/10/09 01:06:16;;;;;;;8.57;4.30;;;;;;;23.87;47.50;101790.78;4988242;28;20518;-62
2023/10/09 01:11:18;;;;;;;6.43;2.80;;;;;;;23.90;47.35;101779.47;4990431;28;20127;-62
2023/10/09 01:16:17;;;;;;;8.15;3.78;;;;;;;23.96;47.63;101774.03;4989927;28;20042;-62
2023/10/09 01:18:49;;;;;;;6.97;3.17;;;;;;;23.98;47.27;101773.88;4990546;28;20030;-62
2023/10/09 01:21:15;;;;;;;;;;;;;;;24.00;47.40;101780.84;4990665;28;20039;-62
2023/10/09 01:23:58;;;;;;;6.88;2.92;;;;;;;24.02;47.69;101772.41;4958385;28;20370;-62
2023/10/09 01:26:24;;;;;;;6.28;3.10;;;;;;;24.04;47.28;101767.59;4975288;28;20043;-62
2023/10/09 01:28:57;;;;;;;7.80;3.40;;;;;;;24.04;47.55;101764.84;4990389;28;20027;-62
2023/10/09 01:31:26;;;;;;;8.73;3.40;;;;;;;24.06;47.16;101769.13;4989519;28;20041;-62
2023/10/09 01:33:53;;;;;;;6.95;3.15;;;;;;;24.08;47.55;101767.03;4973935;28;20038;-62
2023/10/09 01:36:31;;;;;;;5.60;3.83;;;;;;;24.11;47.24;101765.81;4990344;28;20042;-62
2023/10/09 01:39:23;;;;;;;6.05;3.58;;;;;;;24.12;47.18;101764.78;4987807;28;20561;-61
2023/10/09 01:42:01;;;;;;;9.00;3.25;;;;;;;24.13;47.32;101753.63;4974111;28;20034;-60
2023/10/09 01:44:35;;;;;;;6.75;3.50;;;;;;;24.17;47.52;101759.56;4989761;28;20134;-61
2023/10/09 01:47:07;;;;;;;10.15;4.07;;;;;;;24.17;47.57;101754.09;4973701;28;20058;-60
2023/10/09 01:49:49;;;;;;;9.73;3.78;;;;;;;24.17;47.87;101751.34;4989889;28;20073;-61
2023/10/09 01:52:16;;;;;;;8.30;3.40;;;;;;;24.18;47.60;101740.19;4988720;28;20043;-61
2023/10/09 01:54:49;;;;;;;13.45;4.10;;;;;;;24.21;47.92;101753.50;4973272;28;20053;-61
2023/10/09 01:57:15;;;;;;;7.80;3.25;;;;;;;24.23;47.73;101750.56;4973633;28;20407;-61
2023/10/09 02:00:05;;;;;;;6.47;3.72;;;;;;;24.24;47.79;101752.25;4989916;28;20038;-62
2023/10/09 02:02:33;;;;;;;6.35;3.20;;;;;;;24.25;47.13;101764.91;4986501;28;20043;-61
2023/10/09 02:07:41;;;;;;;6.07;3.38;;;;;;;24.26;47.64;101778.41;4974032;28;20368;-61
2023/10/09 02:10:21;;;;;;;12.35;3.70;;;;;;;24.27;47.67;101779.25;4989687;28;20030;-61
2023/10/09 02:12:47;;;;;;;10.38;3.90;;;;;;;24.27;47.94;101776.50;4973460;28;20394;-60
2023/10/09 02:15:15;;;;;;;7.85;4.05;;;;;;;24.28;47.64;101783.69;4973562;28;20039;-61
2023/10/09 02:17:52;;;;;;;8.30;3.70;;;;;;;24.30;47.31;101776.13;4989214;28;20066;-62
2023/10/09 02:20:28;;;;;;;7.00;3.28;;;;;;;24.29;47.34;101772.53;4988429;28;20038;-61
2023/10/09 02:22:54;;;;;;;7.28;2.80;;;;;;;24.29;47.42;101779.91;4988510;28;20034;-61
2023/10/09 02:25:21;;;;;;;7.75;3.63;;;;;;;24.27;48.07;101774.63;4973371;28;20043;-61
2023/10/09 02:27:53;;;;;;;8.77;3.53;;;;;;;24.26;47.51;101777.56;4974939;28;20059;-61
2023/10/09 02:30:27;;;;;;;8.90;3.38;;;;;;;24.26;47.64;101780.31;4973667;28;20057;-61
2023/10/09 02:33:06;;;;;;;12.50;3.30;;;;;;;24.24;47.76;101772.28;4989168;28;20499;-61
2023/10/09 02:35:38;;;;;;;11.57;3.35;;;;;;;24.23;47.27;101769.75;4987801;28;20035;-61
2023/10/09 02:38:08;;;;;;;7.05;3.17;;;;;;;24.20;47.35;101767.41;4988680;28;20042;-62
2023/10/09 02:40:41;;;;;;;7.32;3.33;;;;;;;24.16;48.33;101758.72;4973233;28;20039;-61
2023/10/09 02:43:17;;;;;;;8.40;4.28;;;;;;;24.16;47.56;101758.72;4988807;28;20041;-62
2023/10/09 02:45:50;;;;;;;7.45;3.58;;;;;;;24.14;47.65;101762.69;4988601;28;20042;-62
2023/10/09 02:48:25;;;;;;;9.38;3.63;;;;;;;24.16;47.94;101775.16;4973335;28;20066;-61
2023/10/09 02:50:50;;;;;;;9.63;3.78;;;;;;;24.13;47.77;101769.19;4963454;28;20035;-62
2023/10/09 02:53:19;;;;;;;8.52;3.60;;;;;;;24.14;47.97;101770.91;4973327;28;20027;-62
2023/10/09 02:56:04;;;;;;;6.97;3.17;;;;;;;24.13;48.06;101766.47;4989065;28;20086;-61
2023/10/09 02:58:32;;;;;;;7.40;3.72;;;;;;;24.11;47.99;101760.34;4972749;28;20034;-61
2023/10/09 03:01:00;;;;;;;7.88;4.13;;;;;;;24.14;47.47;101765.44;4989132;28;20480;-61
2023/10/09 03:03:25;;;;;;;5.68;3.58;;;;;;;24.16;48.15;101766.06;4973335;28;20415;-62
2023/10/09 03:05:52;;;;;;;10.48;4.00;;;;;;;24.16;48.37;101752.38;4989412;28;20031;-61
2023/10/09 03:08:19;;;;;;;6.30;3.13;;;;;;;24.12;47.58;101749.19;4972729;28;20408;-61
2023/10/09 03:10:44;;;;;;;12.88;4.47;;;;;;;24.13;48.05;101752.78;4988798;28;20027;-61
2023/10/09 03:13:09;;;;;;;8.65;4.10;;;;;;;24.14;48.22;101754.47;4973800;28;20038;-61
2023/10/09 03:15:35;;;;;;;5.97;3.65;;;;;;;24.13;48.28;101744.56;4973038;28;20406;-61
2023/10/09 03:18:02;;;;;;;8.50;3.05;;;;;;;24.09;47.78;101744.09;4972909;28;20042;-61
2023/10/09 03:20:28;;;;;;;9.90;4.32;;;;;;;24.08;48.40;101739.66;4973865;28;20042;-61
2023/10/09 03:22:54;;;;;;;6.15;3.40;;;;;;;24.10;48.40;101744.94;4972619;28;20026;-61
2023/10/09 03:25:19;;;;;;;7.05;3.28;;;;;;;24.11;48.30;101746.66;4972472;28;20122;-62
2023/10/09 03:27:45;;;;;;;8.02;3.65;;;;;;;24.11;48.38;101750.25;4972585;28;20122;-61
2023/10/09 03:30:16;;;;;;;6.18;3.40;;;;;;;24.11;47.84;101749.38;4988864;28;20067;-62
2023/10/09 03:32:43;;;;;;;8.65;3.10;;;;;;;24.12;47.74;101746.44;4988281;28;20035;-61
2023/10/09 03:35:13;;;;;;;9.52;3.83;;;;;;;24.12;47.94;101751.91;4972664;28;20118;-61
2023/10/09 03:37:39;;;;;;;9.57;4.13;;;;;;;24.09;48.01;101741.34;4988703;28;20042;-61
2023/10/09 03:40:07;;;;;;;9.52;4.15;;;;;;;24.11;48.04;101739.28;4972518;28;20042;-62
2023/10/09 03:42:36;;;;;;;10.90;3.67;;;;;;;24.11;47.83;101733.81;4972402;28;20502;-61
2023/10/09 03:45:03;;;;;;;7.20;3.88;;;;;;;24.11;47.95;101736.56;4972458;28;20058;-61
2023/10/09 03:47:29;;;;;;;12.63;3.38;;;;;;;24.11;47.94;101727.47;4989679;28;20122;-61
2023/10/09 03:49:55;;;;;;;7.90;3.45;;;;;;;24.10;47.96;101731.25;4992343;28;20041;-62
2023/10/09 03:52:25;;;;;;;10.30;3.92;;;;;;;24.10;47.68;101726.63;4992049;28;20043;-61
2023/10/09 03:54:50;;;;;;;14.55;4.20;;;;;;;24.10;47.83;101734.84;4975866;28;20047;-61
2023/10/09 03:57:19;;;;;;;10.18;3.35;;;;;;;24.08;47.64;101742.38;4975769;28;20049;-62
2023/10/09 03:59:46;;;;;;;7.20;3.42;;;;;;;24.10;47.52;101747.69;4976177;28;20043;-62
2023/10/09 04:02:13;;;;;;;9.55;4.88;;;;;;;24.09;47.53;101751.44;4975911;28;20038;-62
2023/10/09 04:04:38;;;;;;;10.30;3.90;;;;;;;24.07;47.65;101759.84;4986080;28;20044;-61
2023/10/09 04:07:03;;;;;;;8.65;3.80;;;;;;;24.07;48.45;101753.50;4959564;28;20118;-61
2023/10/09 04:09:35;;;;;;;10.18;4.05;;;;;;;24.07;48.25;101748.03;4991933;28;20066;-61
2023/10/09 04:14:36;;;;;;;10.65;4.13;;;;;;;24.05;47.72;101750.13;4990876;28;20105;-61
2023/10/09 04:17:06;;;;;;;7.13;4.00;;;;;;;24.05;48.36;101750.97;4992124;28;20483;-60
2023/10/09 04:19:47;;;;;;;9.15;3.67;;;;;;;24.05;47.92;101748.25;4991284;28;20042;-61
2023/10/09 04:22:25;;;;;;;9.10;3.53;;;;;;;24.05;48.32;101739.19;4989604;28;20035;-60
2023/10/09 04:24:51;;;;;;;6.88;3.88;;;;;;;24.03;47.54;101724.84;4975233;28;20035;-62
2023/10/09 04:27:17;;;;;;;7.55;4.03;;;;;;;24.02;47.82;101734.94;4975222;28;20046;-61
2023/10/09 04:29:46;;;;;;;8.68;4.78;;;;;;;24.01;48.06;101738.72;4972475;28;20096;-60
2023/10/09 04:32:16;;;;;;;13.07;4.72;;;;;;;23.98;47.89;101732.81;4975229;28;20377;-60
2023/10/09 04:34:49;;;;;;;11.63;3.67;;;;;;;23.96;48.11;101734.88;4974742;28;20042;-60
2023/10/09 04:39:47;;;;;;;7.05;3.92;;;;;;;23.96;47.97;101734.88;4991457;28;20411;-60
2023/10/09 04:42:36;;;;;;;11.73;4.07;;;;;;;23.97;47.82;101725.63;4975020;28;20065;-60
2023/10/09 04:47:36;;;;;;;8.82;3.88;;;;;;;23.98;48.34;101721.84;4975128;28;20033;-60
2023/10/09 04:50:36;;;;;;;10.73;4.23;;;;;;;23.98;47.72;101721.84;4958790;28;20058;-60
2023/10/09 04:53:22;;;;;;;7.80;4.55;;;;;;;23.94;48.25;101724.13;4977173;28;20035;-61
2023/10/09 04:55:57;;;;;;;10.15;4.45;;;;;;;23.95;48.12;101722.25;4988795;28;20042;-61
2023/10/09 04:58:24;;;;;;;8.85;4.45;;;;;;;23.96;47.62;101721.19;4974556;28;20431;-61
2023/10/09 05:03:28;;;;;;;9.30;4.03;;;;;;;23.95;47.59;101708.56;4975270;28;20042;-60
2023/10/09 05:06:05;;;;;;;9.63;4.13;;;;;;;23.97;48.38;101703.72;4990917;28;20087;-60
2023/10/09 05:08:32;;;;;;;9.63;4.60;;;;;;;23.96;47.50;101696.53;4974294;28;20038;-61
2023/10/09 05:16:04;;;;;;;5.75;3.85;;;;;;;23.95;48.45;101716.75;4975967;28;20081;-61
2023/10/09 05:18:36;;;;;;;7.70;4.20;;;;;;;23.91;48.24;101712.72;4974695;28;20451;-61
2023/10/09 05:21:35;;;;;;;8.23;3.67;;;;;;;23.91;48.03;101715.44;4974530;28;20070;-61
2023/10/09 05:24:15;;;;;;;10.15;4.30;;;;;;;23.89;48.12;101717.53;4988285;28;20447;-61
2023/10/09 05:29:19;;;;;;;8.23;3.90;;;;;;;23.88;47.63;101737.72;4989658;28;20031;-61
2023/10/09 05:34:33;;;;;;;13.55;4.10;;;;;;;23.83;47.74;101730.09;4988320;28;20046;-60
2023/10/09 05:37:22;;;;;;;7.63;4.22;;;;;;;23.84;47.88;101730.97;4974118;28;20035;-61
2023/10/09 05:47:53;;;;;;;7.40;3.75;;;;;;;23.81;47.95;101729.47;4990043;28;20093;-61
2023/10/09 06:06:32;;;;;;;12.55;3.95;;;;;;;23.80;47.98;101740.59;4987736;28;20042;-62
2023/10/09 06:11:48;;;;;;;6.25;3.92;;;;;;;23.77;47.73;101731.72;4974082;28;20108;-61
2023/10/09 06:14:24;;;;;;;10.60;4.68;;;;;;;23.80;48.10;101727.75;4988890;28;20085;-61
2023/10/09 06:24:42;;;;;;;5.38;3.22;;;;;;;23.82;48.49;101768.59;4987836;28;20030;-61
2023/10/09 06:29:50;;;;;;;9.40;5.55;;;;;;;23.86;48.08;101765.31;4989654;28;20027;-62
2023/10/09 06:34:45;;;;;;;7.82;3.78;;;;;;;23.93;47.95;101795.47;4988891;28;20042;-61
2023/10/09 06:42:33;;;;;;;9.32;4.70;;;;;;;24.01;47.45;101817.28;4974477;28;20055;-61
2023/10/09 06:45:14;;;;;;;8.73;3.88;;;;;;;24.03;47.68;101809.72;4973241;28;20143;-60
2023/10/09 06:47:41;;;;;;;10.98;4.55;;;;;;;24.03;48.04;101804.25;4988493;28;20402;-61
2023/10/09 06:52:57;;;;;;;7.68;3.88;;;;;;;24.04;47.98;101814.97;4974817;28;20072;-61
2023/10/09 06:55:33;;;;;;;8.05;3.47;;;;;;;24.06;48.11;101817.53;4974092;28;20054;-61
2023/10/09 06:58:01;;;;;;;6.38;4.53;;;;;;;24.08;47.21;101838.22;4988120;28;20051;-62
2023/10/09 07:03:11;;;;;;;10.90;3.83;;;;;;;24.15;47.57;101827.34;4986895;28;20459;-61
2023/10/09 07:06:00;;;;;;;9.00;3.83;;;;;;;24.13;47.53;101826.69;4972872;28;20062;-61
2023/10/09 07:08:32;;;;;;;8.98;4.05;;;;;;;24.14;47.81;101825.66;4986970;28;20058;-61
2023/10/09 07:11:21;;;;;;;8.48;4.32;;;;;;;24.13;47.95;101824.81;4974474;28;20043;-63
2023/10/09 07:13:54;;;;;;;14.40;4.55;;;;;;;24.13;47.38;101810.28;4989895;28;20049;-63
2023/10/09 07:16:38;;;;;;;9.52;3.83;;;;;;;24.17;47.89;101814.34;4989850;28;20035;-62
2023/10/09 07:19:09;;;;;;;7.90;4.10;;;;;;;24.19;47.92;101810.34;4973402;28;20093;-62
2023/10/09 07:21:39;;;;;;;11.10;4.82;;;;;;;24.22;47.32;101811.84;4989286;28;20047;-61
2023/10/09 07:24:14;;;;;;;11.73;4.30;;;;;;;24.25;47.36;101801.38;4960884;28;20023;-62
2023/10/09 07:26:47;;;;;;;10.57;3.90;;;;;;;24.29;47.17;101807.28;4961769;28;20039;-62
2023/10/09 07:29:21;;;;;;;10.50;4.40;;;;;;;24.31;47.47;101797.00;4977816;28;20034;-61
2023/10/09 07:31:57;;;;;;;7.07;4.15;;;;;;;24.31;47.52;101778.69;4992070;28;20491;-61
2023/10/09 07:34:52;;;;;;;10.85;4.70;;;;;;;24.31;47.70;101795.13;4976215;28;20038;-61
2023/10/09 07:37:19;;;;;;;13.38;4.30;;;;;;;24.34;47.47;101804.84;4988681;28;20050;-61
2023/10/09 07:39:49;;;;;;;10.07;4.80;;;;;;;24.37;47.75;101809.91;4977473;28;20035;-62
2023/10/09 07:42:18;;;;;;;9.55;3.97;;;;;;;24.41;47.02;101822.16;4976202;28;20035;-61
2023/10/09 07:44:52;;;;;;;11.30;4.10;;;;;;;24.43;47.43;101825.56;4976247;28;20097;-61
2023/10/09 07:50:20;;;;;;;9.32;4.10;;;;;;;24.45;47.30;101796.09;4961377;28;20039;-61
2023/10/09 07:52:49;;;;;;;8.52;5.25;;;;;;;24.50;47.43;101796.34;4977274;28;20129;-61
2023/10/09 07:55:26;;;;;;;8.98;4.00;;;;;;;24.50;47.63;101795.50;4991591;28;20046;-62
2023/10/09 07:57:54;;;;;;;8.63;4.05;;;;;;;24.52;47.21;101783.28;4990868;28;20126;-61
2023/10/09 08:01:06;;;;;;;12.20;5.72;;;;;;;24.60;47.35;101787.78;4974851;28;20029;-61
2023/10/09 08:03:24;;;;;;;12.80;4.72;;;;;;;24.70;46.71;101785.56;4987297;28;20042;-61
2023/10/09 08:05:52;;;;;;;11.95;5.45;;;;;;;24.74;47.08;101781.34;4975769;28;20484;-61
2023/10/09 08:08:39;;;;;;;11.55;5.38;;;;;;;24.75;47.10;101778.44;4975819;28;20467;-61
2023/10/09 08:13:56;;;;;;;14.25;5.57;;;;;;;24.77;46.92;101773.59;4989687;28;20581;-62
2023/10/09 08:16:24;;;;;;;16.73;5.70;;;;;;;24.80;47.09;101778.72;4991944;28;20038;-62
2023/10/09 08:18:51;;;;;;;10.93;5.10;;;;;;;24.81;47.08;101763.97;4991699;28;20407;-61
2023/10/09 08:21:41;;;;;;;14.07;4.72;;;;;;;24.80;47.35;101759.53;4976948;28;20043;-61
2023/10/09 08:24:35;;;;;;;11.90;4.78;;;;;;;24.81;47.14;101761.22;4988951;28;20042;-61
2023/10/09 08:27:28;;;;;;;12.77;4.65;;;;;;;24.77;46.79;101757.16;4988671;28;20050;-61
2023/10/09 08:29:38;;;;;;;10.77;5.10;;;;;;;24.81;47.10;101763.97;4988973;28;20046;-61
2023/10/09 08:32:18;;;;;;;16.58;5.60;;;;;;;24.89;47.16;101757.47;4976468;28;20038;-61
2023/10/09 08:34:49;;;;;;;9.13;4.38;;;;;;;24.98;47.31;101777.38;4974635;28;20046;-61
2023/10/09 08:37:14;;;;;;;13.90;5.57;;;;;;;25.02;46.83;101770.41;4976661;28;20038;-61
2023/10/09 08:39:39;;;;;;;12.63;5.22;;;;;;;25.16;47.04;101795.00;4975728;28;20522;-61
2023/10/09 08:42:08;;;;;;;10.43;4.63;;;;;;;25.24;46.32;101800.31;4991752;28;20415;-62
2023/10/09 08:44:34;;;;;;;10.80;5.30;;;;;;;25.32;46.56;101805.63;4975197;28;20503;-62
2023/10/09 08:47:00;;;;;;;12.60;5.28;;;;;;;25.44;46.44;101803.19;4990876;28;20027;-61
2023/10/09 08:49:26;;;;;;;13.77;5.43;;;;;;;25.55;46.67;101815.50;4976308;28;20042;-61
2023/10/09 08:51:54;;;;;;;11.65;5.40;;;;;;;25.70;46.22;101806.09;4991242;28;20452;-62
2023/10/09 08:54:20;;;;;;;16.48;4.68;;;;;;;26.00;46.04;101803.88;4990547;28;20269;-61
2023/10/09 08:56:52;;;;;;;10.45;5.63;;;;;;;26.19;45.67;101796.78;4975935;28;20522;-61
2023/10/09 08:59:18;;;;;;;13.52;6.05;;;;;;;26.27;45.32;101782.88;4990344;28;20114;-61
2023/10/09 09:01:49;;;;;;;24.60;6.15;;;;;;;26.44;46.02;101778.63;4990854;28;20074;-61
2023/10/09 09:04:33;;;;;;;10.00;4.82;;;;;;;26.73;44.73;101786.50;4974467;28;20027;-61
2023/10/09 09:06:59;;;;;;;12.25;5.00;;;;;;;26.93;44.71;101790.13;4975819;28;20038;-61
2023/10/09 09:09:28;;;;;;;12.93;5.05;;;;;;;27.17;44.65;101794.94;4974403;28;20116;-61
2023/10/09 09:11:55;;;;;;;11.45;5.18;;;;;;;27.36;44.55;101789.63;4974360;28;20031;-61
2023/10/09 09:14:21;;;;;;;12.70;5.25;;;;;;;27.50;44.79;101796.81;4990591;28;20031;-61
2023/10/09 09:16:51;;;;;;;9.50;4.95;;;;;;;27.61;44.47;101807.16;4990375;28;20034;-60
2023/10/09 09:19:17;;;;;;;13.30;5.00;;;;;;;27.89;44.04;101813.16;4990071;28;20104;-63
2023/10/09 09:21:48;;;;;;;15.43;5.00;;;;;;;28.41;43.08;101808.44;4974374;28;20034;-62
2023/10/09 09:24:30;;;;;;;10.85;5.07;;;;;;;28.64;42.81;101803.22;4974439;28;20466;-63
2023/10/09 09:30:07;;;;;;;8.93;4.38;;;;;;;28.88;42.09;101805.13;4974302;28;20129;-63
2023/10/09 09:32:35;;;;;;;15.45;4.72;;;;;;;29.04;42.17;101803.69;4974094;28;20045;-62
2023/10/09 09:35:04;;;;;;;12.38;5.25;;;;;;;29.20;42.44;101790.16;4975433;28;20385;-62
2023/10/09 09:37:50;;;;;;;12.25;5.15;;;;;;;29.38;42.00;101787.44;4989929;28;20035;-61
2023/10/09 09:40:28;;;;;;;9.70;4.70;;;;;;;29.53;41.93;101786.22;4987918;28;20097;-63
2023/10/09 09:42:57;;;;;;;9.18;4.22;;;;;;;29.60;41.84;101778.69;4973939;28;20439;-63
2023/10/09 09:45:24;;;;;;;7.53;4.35;;;;;;;29.63;41.66;101776.31;4988749;28;20510;-63
2023/10/09 09:47:56;;;;;;;10.30;4.82;;;;;;;29.61;41.40;101769.34;4973809;28;20042;-63
2023/10/09 09:50:28;;;;;;;15.40;6.28;;;;;;;29.60;41.52;101762.13;4989316;28;20058;-62
2023/10/09 09:52:53;;;;;;;9.05;4.45;;;;;;;29.61;41.30;101764.66;4989222;28;20104;-62
2023/10/09 09:55:22;;;;;;;8.35;3.97;;;;;;;29.68;41.44;101764.56;4975051;28;20535;-63
2023/10/09 09:57:51;;;;;;;13.95;5.10;;;;;;;29.63;41.44;101753.38;4989445;28;20108;-63
2023/10/09 10:00:42;;;;;;;8.10;4.28;;;;;;;29.66;41.22;101752.91;4989633;28;20035;-63
2023/10/09 10:03:33;;;;;;;8.20;4.60;;;;;;;29.71;41.06;101758.56;4960410;28;20034;-63
2023/10/09 10:06:00;;;;;;;7.97;3.45;;;;;;;29.71;41.22;101758.56;4973049;28;20573;-63
2023/10/09 10:08:32;;;;;;;10.07;4.50;;;;;;;29.69;41.17;101752.44;4973339;28;20030;-63
2023/10/09 10:11:04;;;;;;;5.47;3.35;;;;;;;29.71;41.11;101742.00;4988914;28;20097;-63
2023/10/09 10:13:42;;;;;;;11.95;4.72;;;;;;;29.72;40.88;101744.53;4973300;28;20089;-63
2023/10/09 10:16:19;;;;;;;9.95;4.55;;;;;;;29.68;41.30;101748.84;4974568;28;20041;-63
2023/10/09 10:21:41;;;;;;;9.93;4.00;;;;;;;29.62;40.97;101738.72;4988227;28;20115;-64
2023/10/09 10:24:51;;;;;;;10.15;5.00;;;;;;;29.62;40.65;101733.19;4973116;28;20030;-64
2023/10/09 10:27:26;;;;;;;11.57;4.38;;;;;;;29.62;40.97;101726.84;4973339;28;20058;-64
2023/10/09 10:30:12;;;;;;;10.18;3.67;;;;;;;29.56;40.73;101720.34;4973186;28;20118;-62
2023/10/09 10:32:57;;;;;;;6.60;3.45;;;;;;;29.51;40.89;101724.88;4966186;28;20128;-63
2023/10/09 10:35:32;;;;;;;9.15;4.22;;;;;;;29.45;40.78;101724.69;4972909;28;20039;-63
2023/10/09 10:38:20;;;;;;;7.22;3.83;;;;;;;29.38;40.70;101721.19;4957904;28;20039;-64
2023/10/09 10:40:46;;;;;;;9.15;3.80;;;;;;;29.40;41.02;101734.75;4959354;28;20066;-63
2023/10/09 10:43:47;;;;;;;8.07;3.40;;;;;;;29.39;40.75;101738.59;4972971;28;20073;-63
2023/10/09 10:46:24;;;;;;;7.45;3.58;;;;;;;29.35;40.71;101742.88;4960257;28;20575;-63
2023/10/09 10:49:14;;;;;;;9.88;3.38;;;;;;;29.36;40.73;101756.47;4972844;28;20041;-64
2023/10/09 10:51:39;;;;;;;13.13;4.35;;;;;;;29.37;40.44;101774.72;4972425;28;20086;-65
2023/10/09 10:54:45;;;;;;;9.18;3.92;;;;;;;29.41;40.01;101775.94;4987829;28;20503;-62
2023/10/09 10:57:36;;;;;;;11.60;3.75;;;;;;;29.48;40.71;101786.94;4972325;28;20046;-62
2023/10/09 11:02:55;;;;;;;7.93;3.33;;;;;;;29.61;40.79;101786.75;4985838;28;20407;-61
2023/10/09 11:05:25;;;;;;;8.80;3.65;;;;;;;29.67;39.94;101785.00;4989004;28;20506;-61
2023/10/09 11:07:56;;;;;;;8.35;3.08;;;;;;;29.69;39.86;101777.31;4972651;28;20122;-61
2023/10/09 11:10:31;;;;;;;7.70;3.45;;;;;;;29.74;39.65;101785.75;4972690;28;20098;-61
2023/10/09 11:15:44;;;;;;;10.95;3.50;;;;;;;29.82;39.77;101786.31;4987609;28;20046;-63
2023/10/09 11:18:27;;;;;;;9.43;3.20;;;;;;;29.91;39.56;101787.66;4973759;28;20165;-60
2023/10/09 11:23:57;;;;;;;6.65;3.15;;;;;;;30.07;39.34;101786.16;4966222;28;20027;-61
2023/10/09 11:26:28;;;;;;;18.95;3.67;;;;;;;30.17;39.59;101786.47;4986767;28;20077;-62
2023/10/09 11:32:11;;;;;;;9.60;3.50;;;;;;;30.31;38.77;101787.94;4974036;28;20082;-61
2023/10/09 11:34:37;;;;;;;7.60;3.47;;;;;;;30.37;39.01;101781.50;4972412;28;20414;-62
2023/10/09 11:37:12;;;;;;;8.23;3.55;;;;;;;30.43;38.83;101786.06;4972275;28;20276;-61
2023/10/09 11:39:50;;;;;;;9.00;3.42;;;;;;;30.46;38.87;101785.59;4988731;28;20042;-62
2023/10/09 11:42:35;;;;;;;9.02;3.25;;;;;;;30.49;39.14;101774.06;4988618;28;20039;-61
2023/10/09 11:45:19;;;;;;;8.90;2.92;;;;;;;30.49;38.98;101779.59;4972548;28;20113;-61
2023/10/09 11:48:00;;;;;;;10.10;3.47;;;;;;;30.51;38.89;101780.19;4972609;28;20498;-61
2023/10/09 11:55:53;;;;;;;10.25;3.38;;;;;;;30.53;38.80;101768.91;4988340;28;20039;-62
2023/10/09 11:58:22;;;;;;;10.18;3.38;;;;;;;30.56;38.92;101774.81;4972023;28;20134;-61
2023/10/09 12:00:59;;;;;;;5.75;3.22;;;;;;;30.56;38.59;101765.66;4988085;28;20039;-62
2023/10/09 12:03:29;;;;;;;7.93;3.42;;;;;;;30.57;38.66;101765.41;4972195;28;20384;-63
2023/10/09 12:06:04;;;;;;;7.15;3.25;;;;;;;30.63;38.66;101768.34;4988346;28;20034;-63
2023/10/09 12:08:29;;;;;;;7.53;3.30;;;;;;;30.63;38.70;101771.09;4973014;28;20035;-63
2023/10/09 12:10:55;;;;;;;6.88;3.00;;;;;;;30.65;38.83;101766.16;4975665;28;20115;-61
2023/10/09 12:13:25;;;;;;;8.80;3.90;;;;;;;30.63;38.60;101765.56;4991842;28;20043;-61
2023/10/09 12:15:54;;;;;;;6.50;3.67;;;;;;;30.61;38.57;101759.41;4991683;28;20042;-61
2023/10/09 12:18:21;;;;;;;8.52;3.72;;;;;;;30.54;38.65;101757.59;4990345;28;20074;-61
2023/10/09 12:20:50;;;;;;;8.93;3.38;;;;;;;30.54;38.71;101760.34;4991881;28;20526;-61
2023/10/09 12:23:17;;;;;;;10.57;3.45;;;;;;;30.53;38.76;101757.84;4991438;28;20503;-62
2023/10/09 12:25:44;;;;;;;8.20;3.90;;;;;;;30.52;38.73;101751.47;4992217;28;20042;-61
2023/10/09 12:28:12;;;;;;;13.35;3.88;;;;;;;30.54;38.63;101752.06;4990424;28;20093;-61
2023/10/09 12:30:41;;;;;;;9.85;3.65;;;;;;;30.50;38.96;101759.16;4975339;28;20037;-61
2023/10/09 12:33:07;;;;;;;16.02;3.53;;;;;;;30.49;38.58;101756.63;4991076;28;20065;-61
2023/10/09 12:35:39;;;;;;;11.90;3.88;;;;;;;30.41;38.87;101749.53;4975215;28;20475;-62
2023/10/09 12:38:09;;;;;;;13.43;4.05;;;;;;;30.45;38.45;101750.75;4990872;28;20495;-61
2023/10/09 12:40:40;;;;;;;9.90;3.40;;;;;;;30.43;38.72;101752.88;4976561;28;20027;-62
2023/10/09 12:43:15;;;;;;;11.67;4.07;;;;;;;30.40;38.79;101747.00;4991021;28;20023;-62
2023/10/09 12:45:42;;;;;;;13.25;3.75;;;;;;;30.37;38.76;101742.78;4975063;28;20775;-62
2023/10/09 12:48:09;;;;;;;7.07;3.70;;;;;;;30.37;38.98;101753.84;4991223;28;20565;-61
2023/10/09 12:50:41;;;;;;;6.47;3.30;;;;;;;30.38;38.76;101750.00;4991092;28;20041;-61
2023/10/09 12:53:09;;;;;;;8.65;3.55;;;;;;;30.35;38.98;101744.91;4990463;28;20035;-61
2023/10/09 12:55:40;;;;;;;6.72;3.30;;;;;;;30.32;38.97;101759.19;4990726;28;20050;-62
2023/10/09 12:58:07;;;;;;;6.68;3.00;;;;;;;30.26;38.64;101751.88;4974999;28;20446;-61
2023/10/09 13:00:43;;;;;;;10.75;3.72;;;;;;;30.23;38.92;101755.13;4975126;28;20495;-63
2023/10/09 13:03:16;;;;;;;8.07;3.90;;;;;;;30.16;38.98;101754.34;4974794;28;20402;-61
2023/10/09 13:05:54;;;;;;;7.82;3.80;;;;;;;30.04;38.74;101759.00;4989730;28;20042;-63
2023/10/09 13:08:24;;;;;;;7.45;3.60;;;;;;;29.96;39.31;101762.94;4976582;28;20117;-64
2023/10/09 13:11:00;;;;;;;9.77;3.53;;;;;;;29.87;39.46;101767.09;4975290;28;20448;-63
2023/10/09 13:13:41;;;;;;;8.52;4.00;;;;;;;29.84;39.05;101763.97;4974642;28;20043;-61
2023/10/09 13:16:22;;;;;;;8.52;3.72;;;;;;;29.77;39.06;101766.78;4989289;28;20071;-63
2023/10/09 13:18:51;;;;;;;6.70;3.35;;;;;;;29.69;38.92;101766.25;4974763;28;20038;-62
2023/10/09 13:21:21;;;;;;;6.43;2.92;;;;;;;29.66;39.63;101763.97;4974734;28;20059;-62
2023/10/09 13:23:47;;;;;;;6.47;3.08;;;;;;;29.66;39.27;101766.72;4974914;28;20039;-61
2023/10/09 13:26:19;;;;;;;7.03;2.97;;;;;;;29.63;39.16;101756.13;4990282;28;20038;-61
2023/10/09 13:28:48;;;;;;;9.90;3.33;;;;;;;29.61;39.46;101750.00;4975871;28;20046;-66
2023/10/09 13:31:15;;;;;;;11.35;3.92;;;;;;;29.57;39.57;101754.28;4990602;28;20025;-63
2023/10/09 13:33:43;;;;;;;7.10;3.58;;;;;;;29.56;39.60;101745.19;4990768;28;20027;-61
2023/10/09 13:39:22;;;;;;;7.53;3.35;;;;;;;29.64;39.66;101746.78;4978308;28;20407;-63
2023/10/09 13:41:49;;;;;;;8.52;4.07;;;;;;;29.64;39.59;101736.59;4973930;28;20030;-60
2023/10/09 13:44:15;;;;;;;6.10;3.30;;;;;;;29.66;39.94;101739.09;4973845;28;20122;-61